Time;durP1;ratioP1;P1;durP2;ratioP2;P2;SDS_P1;SDS_P2;PMS_P1;PMS_P2;Temp;Humidity;BMP_temperature;BMP_pressure;BME280_temperature;BME280_humidity;BME280_pressure;Samples;Min_cycle;Max_cycle;Signal;HPM_P1;HPM_P2
2021/08/25 00:01:44;;;;;;;2.77;2.57;;;24.50;56.00;;;;;;6177549;23;20388;-88
2021/08/25 00:04:16;;;;;;;3.00;2.80;;;24.50;56.00;;;;;;6176052;23;20407;-88
2021/08/25 00:06:45;;;;;;;4.10;3.70;;;24.50;56.10;;;;;;6176242;23;20877;-88
2021/08/25 00:09:11;;;;;;;3.10;2.80;;;24.50;56.00;;;;;;6177005;23;20391;-88
2021/08/25 00:11:37;;;;;;;2.87;2.67;;;24.50;56.00;;;;;;6176649;23;20471;-87
2021/08/25 00:17:38;;;;;;;;;;;;;;;;;;;;;
2021/08/25 00:20:05;;;;;;;3.47;3.17;;;24.40;56.50;;;;;;6204318;23;20351;-87
2021/08/25 00:22:31;;;;;;;3.07;2.77;;;24.40;56.00;;;;;;6178541;23;20414;-87
2021/08/25 00:24:57;;;;;;;3.37;2.90;;;24.50;56.10;;;;;;6179395;23;20386;-87
2021/08/25 00:27:26;;;;;;;2.83;2.63;;;24.40;56.00;;;;;;6154097;23;20447;-87
2021/08/25 00:29:54;;;;;;;2.90;2.70;;;24.50;56.10;;;;;;6180013;23;20379;-87
2021/08/25 00:32:20;;;;;;;3.60;3.30;;;24.50;56.10;;;;;;6205896;23;20394;-87
2021/08/25 00:34:46;;;;;;;3.37;3.10;;;24.50;56.10;;;;;;6177960;23;20384;-88
2021/08/25 00:37:14;;;;;;;3.17;2.97;;;24.50;56.10;;;;;;6180701;23;20390;-85
2021/08/25 00:40:04;;;;;;;;;;;;;;;;;;;;;
2021/08/25 00:42:33;;;;;;;3.37;3.07;;;24.50;56.10;;;;;;6202647;23;20385;-85
2021/08/25 00:45:03;;;;;;;3.60;3.30;;;24.40;56.10;;;;;;6204498;23;20816;-85
2021/08/25 00:47:42;;;;;;;3.10;2.80;;;24.40;56.10;;;;;;6179523;23;20415;-85
2021/08/25 00:50:16;;;;;;;3.37;3.07;;;24.50;56.10;;;;;;6181353;23;20383;-85
2021/08/25 00:52:44;;;;;;;3.50;3.20;;;24.40;56.10;;;;;;6207266;23;20358;-85
2021/08/25 00:55:18;;;;;;;3.00;2.70;;;24.40;56.10;;;;;;6181619;23;20425;-85
2021/08/25 00:57:47;;;;;;;3.00;2.43;;;24.40;56.20;;;;;;6158098;23;20375;-85
2021/08/25 01:00:22;;;;;;;3.73;3.43;;;24.40;56.20;;;;;;6207105;23;20394;-84
2021/08/25 01:03:22;;;;;;;2.97;2.67;;;24.40;56.20;;;;;;6236624;23;20469;-85
2021/08/25 01:05:51;;;;;;;3.00;2.70;;;24.40;56.20;;;;;;6236393;23;20430;-85
2021/08/25 01:08:21;;;;;;;2.80;2.60;;;24.40;56.20;;;;;;6236722;23;20382;-85
2021/08/25 01:11:12;;;;;;;2.87;2.67;;;24.40;56.20;;;;;;6236275;23;20712;-85
2021/08/25 01:13:41;;;;;;;3.30;3.00;;;24.40;56.20;;;;;;6235883;23;20385;-85
2021/08/25 01:16:09;;;;;;;3.23;2.97;;;24.40;56.20;;;;;;6238187;23;20413;-84
2021/08/25 01:18:47;;;;;;;2.80;2.47;;;24.40;56.20;;;;;;6238959;23;20367;-85
2021/08/25 01:21:14;;;;;;;3.20;2.90;;;24.40;56.20;;;;;;6238194;23;20381;-85
2021/08/25 01:23:56;;;;;;;2.97;2.77;;;24.40;56.30;;;;;;6262127;23;20455;-85
2021/08/25 01:26:22;;;;;;;3.10;2.80;;;24.40;56.30;;;;;;6239879;23;20349;-84
2021/08/25 01:29:05;;;;;;;3.00;2.80;;;24.40;56.30;;;;;;6263939;23;20477;-85
2021/08/25 01:31:36;;;;;;;2.73;2.53;;;24.40;56.30;;;;;;6237655;23;20388;-85
2021/08/25 01:34:07;;;;;;;2.73;2.53;;;24.40;56.30;;;;;;6240575;23;20423;-85
2021/08/25 01:36:33;;;;;;;3.10;2.87;;;24.40;56.30;;;;;;6261666;23;20453;-85
2021/08/25 01:39:25;;;;;;;2.67;2.47;;;24.30;56.30;;;;;;6236845;23;20406;-85
2021/08/25 01:41:57;;;;;;;3.00;2.70;;;24.40;56.30;;;;;;6236537;23;20367;-85
2021/08/25 01:44:23;;;;;;;3.30;3.00;;;24.30;56.30;;;;;;6236845;23;20678;-85
2021/08/25 01:46:51;;;;;;;3.30;3.00;;;24.30;56.30;;;;;;6235480;23;20388;-85
2021/08/25 01:49:21;;;;;;;2.70;2.50;;;24.30;56.30;;;;;;6236321;23;20217;-83
2021/08/25 01:51:47;;;;;;;2.83;2.60;;;24.30;56.30;;;;;;6237089;23;20347;-85
2021/08/25 01:54:15;;;;;;;3.33;3.03;;;24.30;56.30;;;;;;6260350;23;20381;-85
2021/08/25 01:57:01;;;;;;;3.10;2.90;;;24.30;56.30;;;;;;6236636;23;20175;-85
2021/08/25 01:59:37;;;;;;;3.27;2.97;;;24.30;56.40;;;;;;6235593;23;20386;-85
2021/08/25 02:02:03;;;;;;;2.63;2.43;;;24.30;56.40;;;;;;6260666;23;20404;-85
2021/08/25 02:04:32;;;;;;;3.53;3.23;;;24.30;56.40;;;;;;6236398;23;20377;-85
2021/08/25 02:07:06;;;;;;;3.07;2.77;;;24.30;56.40;;;;;;6236121;23;20390;-85
2021/08/25 02:09:32;;;;;;;3.23;2.90;;;24.30;56.40;;;;;;6237329;23;20382;-84
2021/08/25 02:12:03;;;;;;;3.17;2.63;;;24.30;56.40;;;;;;6236591;23;20372;-85
2021/08/25 02:14:38;;;;;;;3.33;2.97;;;24.30;56.40;;;;;;6235646;23;20479;-84
2021/08/25 02:20:35;;;;;;;3.13;2.83;;;24.30;56.40;;;;;;6115734;23;20377;-84
2021/08/25 02:23:06;;;;;;;2.70;2.50;;;24.30;56.50;;;;;;6115701;23;20535;-84
2021/08/25 02:25:40;;;;;;;2.90;2.70;;;24.30;56.50;;;;;;6090854;23;20416;-83
2021/08/25 02:28:14;;;;;;;2.80;2.50;;;24.30;56.50;;;;;;6116011;23;20370;-84
2021/08/25 02:31:12;;;;;;;3.57;3.27;;;24.30;56.50;;;;;;6114645;23;20413;-84
2021/08/25 02:33:55;;;;;;;3.30;3.00;;;24.30;56.50;;;;;;6091028;23;20620;-85
2021/08/25 02:36:22;;;;;;;2.80;2.60;;;24.30;56.50;;;;;;6115097;23;20418;-84
2021/08/25 02:38:48;;;;;;;2.80;2.60;;;24.30;56.40;;;;;;6115830;23;20405;-84
2021/08/25 02:41:21;;;;;;;3.20;2.83;;;24.30;56.40;;;;;;6118207;23;20385;-85
2021/08/25 02:43:47;;;;;;;2.60;2.40;;;24.30;56.40;;;;;;6117383;23;20389;-84
2021/08/25 02:46:13;;;;;;;3.27;2.97;;;24.30;56.40;;;;;;6116474;23;20409;-84
2021/08/25 02:48:42;;;;;;;2.60;2.40;;;24.30;56.40;;;;;;6116794;23;20390;-84
2021/08/25 02:51:13;;;;;;;3.17;2.97;;;24.30;56.40;;;;;;6116113;23;20390;-84
2021/08/25 02:53:39;;;;;;;2.80;2.50;;;24.30;56.40;;;;;;6116743;23;20413;-84
2021/08/25 02:56:12;;;;;;;2.40;2.20;;;24.30;56.40;;;;;;6126307;23;20425;-85
2021/08/25 02:58:45;;;;;;;3.40;2.63;;;24.30;56.40;;;;;;6259984;23;20433;-85
2021/08/25 03:01:11;;;;;;;2.87;2.67;;;24.30;56.40;;;;;;6260359;23;20451;-84
2021/08/25 03:03:43;;;;;;;2.90;2.70;;;24.30;56.40;;;;;;6260188;23;20450;-84
2021/08/25 03:06:12;;;;;;;2.70;2.50;;;24.30;56.40;;;;;;6261149;23;20381;-84
2021/08/25 03:08:40;;;;;;;2.50;2.30;;;24.30;56.40;;;;;;6236462;23;20410;-84
2021/08/25 03:11:18;;;;;;;2.33;2.13;;;24.30;56.40;;;;;;6260021;23;20379;-85
2021/08/25 03:13:46;;;;;;;2.37;2.17;;;24.30;56.30;;;;;;6235402;23;20371;-84
2021/08/25 03:16:15;;;;;;;2.90;2.60;;;24.30;56.30;;;;;;6260272;23;20421;-84
2021/08/25 03:18:51;;;;;;;3.23;3.03;;;24.30;56.30;;;;;;6234530;23;20382;-84
2021/08/25 03:21:41;;;;;;;2.70;2.50;;;24.30;56.30;;;;;;6234960;23;20417;-84
2021/08/25 03:24:08;;;;;;;2.50;2.30;;;24.30;56.30;;;;;;6235733;23;20370;-84
2021/08/25 03:26:36;;;;;;;3.10;2.80;;;24.30;56.30;;;;;;6234475;23;20386;-84
2021/08/25 03:29:04;;;;;;;2.50;2.30;;;24.30;56.90;;;;;;6236565;23;20681;-84
2021/08/25 03:31:34;;;;;;;2.50;2.30;;;24.30;56.30;;;;;;6259627;23;20402;-84
2021/08/25 03:34:02;;;;;;;2.40;2.20;;;24.30;56.30;;;;;;6236177;23;20396;-84
2021/08/25 03:36:34;;;;;;;2.97;2.67;;;24.30;56.30;;;;;;6261138;23;20479;-84
2021/08/25 03:39:03;;;;;;;3.03;2.77;;;24.30;56.30;;;;;;6236157;23;20354;-84
2021/08/25 03:41:36;;;;;;;2.70;2.43;;;24.30;56.30;;;;;;6235455;23;20374;-84
2021/08/25 03:44:09;;;;;;;2.40;2.20;;;24.30;56.30;;;;;;6236215;23;20362;-84
2021/08/25 03:46:36;;;;;;;2.83;2.63;;;24.30;56.30;;;;;;6235803;23;20370;-84
2021/08/25 03:49:07;;;;;;;2.73;2.50;;;24.30;56.30;;;;;;6234138;23;20382;-84
2021/08/25 03:51:46;;;;;;;3.37;2.80;;;24.30;56.40;;;;;;6233469;23;20374;-84
2021/08/25 03:54:17;;;;;;;2.53;2.33;;;24.30;56.40;;;;;;6236756;23;20435;-84
2021/08/25 03:56:43;;;;;;;2.50;2.30;;;24.30;56.40;;;;;;6236153;23;20485;-84
2021/08/25 03:59:14;;;;;;;4.23;2.70;;;24.30;56.40;;;;;;6260064;23;20437;-83
2021/08/25 04:01:41;;;;;;;2.80;2.60;;;24.30;56.40;;;;;;6260503;23;20166;-85
2021/08/25 04:04:22;;;;;;;4.03;2.47;;;24.30;56.40;;;;;;6235815;23;20378;-84
2021/08/25 04:06:50;;;;;;;2.50;2.30;;;24.30;56.40;;;;;;6235634;23;20358;-85
2021/08/25 04:09:18;;;;;;;2.90;2.70;;;24.30;56.40;;;;;;6236261;23;20425;-85
2021/08/25 04:11:49;;;;;;;2.23;2.03;;;24.30;56.40;;;;;;6235834;23;20374;-84
2021/08/25 04:14:20;;;;;;;2.73;2.53;;;24.30;56.40;;;;;;6236127;23;20350;-85
2021/08/25 04:16:54;;;;;;;2.30;2.10;;;24.20;56.30;;;;;;6236435;23;20410;-83
2021/08/25 04:19:45;;;;;;;3.03;2.80;;;24.30;56.40;;;;;;6236618;23;20338;-83
2021/08/25 04:22:46;;;;;;;2.50;2.30;;;24.30;56.40;;;;;;6235257;23;20389;-84
2021/08/25 04:25:16;;;;;;;2.60;2.40;;;24.30;56.40;;;;;;6237451;23;20378;-84
2021/08/25 04:27:56;;;;;;;2.50;2.30;;;24.20;56.40;;;;;;6262238;23;20406;-84
2021/08/25 04:30:23;;;;;;;2.90;2.60;;;24.20;56.40;;;;;;6239198;23;20405;-84
2021/08/25 04:36:54;;;;;;;2.40;2.20;;;24.30;56.40;;;;;;6241481;23;20421;-84
2021/08/25 04:40:13;;;;;;;;;;;;;;;;;;;;;
2021/08/25 04:52:31;;;;;;;2.20;2.00;;;24.30;56.30;;;;;;6035335;23;20377;-84
2021/08/25 04:58:26;;;;;;;2.40;2.20;;;24.30;56.30;;;;;;6034835;23;20376;-83
2021/08/25 05:23:32;;;;;;;2.43;2.23;;;24.40;56.30;;;;;;6149794;23;20364;-84
2021/08/25 05:26:13;;;;;;;2.47;2.27;;;24.30;56.30;;;;;;6123452;23;20365;-85
2021/08/25 05:29:25;;;;;;;2.33;2.13;;;24.40;56.30;;;;;;6149244;23;20372;-85
2021/08/25 05:32:07;;;;;;;2.07;1.87;;;24.40;56.30;;;;;;6054661;23;20395;-84
2021/08/25 05:34:59;;;;;;;2.37;2.17;;;24.40;56.20;;;;;;6063237;23;20389;-84
2021/08/25 05:37:31;;;;;;;2.63;2.43;;;24.40;56.30;;;;;;6040860;23;20426;-84
2021/08/25 05:40:30;;;;;;;3.63;2.70;;;24.40;56.20;;;;;;6038025;23;20387;-83
2021/08/25 05:43:12;;;;;;;;;;;;;;;;;;;;;
2021/08/25 05:46:08;;;;;;;3.10;2.83;;;24.40;56.20;;;;;;6146534;23;20385;-85
2021/08/25 05:52:06;;;;;;;5.07;2.60;;;24.40;56.10;;;;;;6058622;23;20388;-85
2021/08/25 06:01:54;;;;;;;;;;;;;;;;;;;;;
2021/08/25 06:10:48;;;;;;;6.57;3.43;;;24.40;56.10;;;;;;6029167;23;20369;-85
2021/08/25 06:37:21;;;;;;;3.63;3.33;;;24.40;56.00;;;;;;6030206;23;20463;-86
2021/08/25 06:40:27;;;;;;;2.63;2.43;;;24.40;56.00;;;;;;6030395;23;20395;-86
2021/08/25 06:49:51;;;;;;;2.60;2.40;;;24.40;55.90;;;;;;6028967;23;20372;-86
2021/08/25 06:52:58;;;;;;;3.83;3.53;;;24.40;55.90;;;;;;6029242;23;20389;-86
2021/08/25 07:09:45;;;;;;;2.70;2.50;;;24.50;55.80;;;;;;5910807;24;20401;-86
2021/08/25 07:15:48;;;;;;;3.20;2.90;;;24.50;55.80;;;;;;5891073;24;20465;-85
2021/08/25 07:42:18;;;;;;;2.93;2.67;;;24.50;55.80;;;;;;5942746;24;20423;-85
2021/08/25 07:45:02;;;;;;;;;;;;;;;;;;;;;
2021/08/25 07:47:45;;;;;;;3.70;2.70;;;24.50;55.70;;;;;;5926002;24;20383;-85
2021/08/25 08:56:00;;;;;;;2.33;2.13;;;24.60;55.90;;;;;;5917368;24;20390;-86
2021/08/25 11:30:41;;;;;;;;;;;;;;;;;;;;;
2021/08/25 12:18:20;;;;;;;2.70;2.47;;;25.00;56.20;;;;;;5928899;24;20419;-85
2021/08/25 12:48:08;;;;;;;2.80;2.50;;;24.90;56.10;;;;;;6026760;23;20492;-85
2021/08/25 12:55:09;;;;;;;2.93;2.60;;;24.90;56.10;;;;;;5998315;24;20381;-84
2021/08/25 13:01:40;;;;;;;;;;;;;;;;;;;;;
2021/08/25 13:50:08;;;;;;;3.70;3.00;;;24.70;56.00;;;;;;5789099;24;20429;-86
2021/08/25 13:56:07;;;;;;;4.83;2.90;;;24.70;56.00;;;;;;5769399;24;20541;-83
2021/08/25 13:59:09;;;;;;;3.77;3.20;;;24.70;56.00;;;;;;5772495;24;20419;-81
2021/08/25 14:01:38;;;;;;;5.13;3.17;;;24.70;55.90;;;;;;5762451;25;20417;-82
2021/08/25 14:07:57;;;;;;;4.27;3.20;;;24.70;55.90;;;;;;5868173;24;20413;-85
2021/08/25 14:10:23;;;;;;;4.80;3.37;;;24.60;55.50;;;;;;5870903;24;20397;-83
2021/08/25 14:12:50;;;;;;;3.73;3.30;;;24.70;55.90;;;;;;5922726;24;20395;-83
2021/08/25 14:15:32;;;;;;;3.83;3.10;;;24.70;55.80;;;;;;5941875;24;20409;-85
2021/08/25 14:18:12;;;;;;;4.37;3.20;;;24.70;55.80;;;;;;6004796;24;20448;-86
2021/08/25 14:20:48;;;;;;;3.97;2.90;;;24.70;55.80;;;;;;5980005;24;20396;-85
2021/08/25 14:23:50;;;;;;;3.30;2.97;;;24.70;55.70;;;;;;6137280;23;20747;-86
2021/08/25 14:26:35;;;;;;;4.07;3.20;;;24.70;55.70;;;;;;6122187;23;20568;-84
2021/08/25 14:29:22;;;;;;;3.50;2.90;;;24.70;55.70;;;;;;6144175;23;20376;-85
2021/08/25 14:32:06;;;;;;;5.30;3.63;;;24.70;55.50;;;;;;6118971;23;20436;-85
2021/08/25 14:34:41;;;;;;;3.67;3.10;;;24.70;55.50;;;;;;6154880;23;20367;-85
2021/08/25 14:37:21;;;;;;;4.40;3.20;;;24.60;55.50;;;;;;6181259;23;20422;-85
2021/08/25 14:40:08;;;;;;;;;;;;;;;;;;;;;
2021/08/25 14:42:41;;;;;;;5.57;3.20;;;24.60;55.50;;;;;;6206415;23;20364;-85
2021/08/25 14:54:52;;;;;;;7.70;3.77;;;24.50;55.60;;;;;;6197363;23;20402;-85
2021/08/25 15:00:50;;;;;;;4.60;3.10;;;24.50;55.60;;;;;;6236340;23;20915;-85
2021/08/25 15:03:49;;;;;;;4.63;3.50;;;24.50;55.70;;;;;;6210193;23;20440;-84
2021/08/25 15:06:22;;;;;;;4.17;3.30;;;24.50;55.70;;;;;;6237189;23;20420;-84
2021/08/25 15:08:52;;;;;;;6.00;3.83;;;24.40;55.80;;;;;;6210616;23;20366;-85
2021/08/25 15:18:57;;;;;;;3.50;2.50;;;24.50;55.80;;;;;;6144847;23;20466;-84
2021/08/25 15:21:28;;;;;;;6.03;3.30;;;24.40;55.80;;;;;;6058102;23;20379;-85
2021/08/25 15:23:58;;;;;;;7.63;3.50;;;24.40;55.90;;;;;;6033742;23;20388;-84
2021/08/25 15:26:26;;;;;;;5.87;3.60;;;24.40;55.90;;;;;;6058139;23;20383;-84
2021/08/25 15:29:07;;;;;;;;;;;;;;;;;;;;;
2021/08/25 15:38:43;;;;;;;4.40;3.30;;;24.40;55.90;;;;;;6057971;23;20403;-85
2021/08/25 15:41:47;;;;;;;4.90;4.00;;;24.40;56.00;;;;;;6034167;23;20395;-85
2021/08/25 15:44:38;;;;;;;5.47;3.90;;;24.40;56.10;;;;;;6058048;23;20413;-85
2021/08/25 15:47:11;;;;;;;6.07;3.47;;;24.30;56.10;;;;;;6033767;23;20396;-85
2021/08/25 15:50:03;;;;;;;4.90;3.50;;;24.40;56.10;;;;;;6033892;23;20363;-85
2021/08/25 15:52:56;;;;;;;6.17;3.60;;;24.40;56.10;;;;;;6115155;23;20418;-85
2021/08/25 15:58:34;;;;;;;7.50;3.70;;;24.30;56.10;;;;;;6131612;23;20435;-85
2021/08/25 16:01:11;;;;;;;10.50;4.63;;;24.30;56.10;;;;;;6145313;23;20828;-85
2021/08/25 16:03:48;;;;;;;4.43;3.60;;;24.30;56.20;;;;;;6111909;23;20405;-85
2021/08/25 16:06:18;;;;;;;8.67;4.23;;;24.30;56.20;;;;;;6092551;23;20370;-85
2021/08/25 16:08:54;;;;;;;6.43;4.10;;;24.30;56.20;;;;;;6092599;23;20401;-85
2021/08/25 16:11:52;;;;;;;6.63;3.47;;;24.30;56.20;;;;;;6116736;23;20358;-85
2021/08/25 16:14:23;;;;;;;8.50;4.40;;;24.30;56.20;;;;;;6114875;23;20360;-85
2021/08/25 16:16:59;;;;;;;6.90;3.77;;;24.30;56.20;;;;;;6114699;23;20549;-86
2021/08/25 16:20:00;;;;;;;6.83;4.60;;;24.30;56.20;;;;;;6114970;23;20381;-86
2021/08/25 16:22:32;;;;;;;4.93;3.30;;;24.20;56.20;;;;;;6092910;23;20381;-85
2021/08/25 16:25:17;;;;;;;6.67;4.20;;;24.30;56.30;;;;;;6117193;23;20369;-86
2021/08/25 16:27:50;;;;;;;7.00;4.00;;;24.30;56.30;;;;;;6092396;23;20884;-86
2021/08/25 16:30:26;;;;;;;6.53;4.80;;;24.30;56.30;;;;;;6116491;23;20413;-85
2021/08/25 16:32:57;;;;;;;7.40;3.73;;;24.30;56.30;;;;;;6093495;23;20397;-86
2021/08/25 16:35:29;;;;;;;6.07;4.10;;;24.30;56.40;;;;;;6144025;23;20379;-85
2021/08/25 16:37:55;;;;;;;6.23;3.80;;;24.30;56.40;;;;;;6207907;23;20380;-86
2021/08/25 16:40:23;;;;;;;7.67;3.83;;;24.20;56.30;;;;;;6156644;23;20391;-85
2021/08/25 16:42:56;;;;;;;6.90;3.93;;;24.30;56.90;;;;;;6182132;23;20522;-86
2021/08/25 16:45:40;;;;;;;;;;;;;;;;;;;;;
2021/08/25 16:48:08;;;;;;;5.77;4.03;;;24.20;56.90;;;;;;6207166;23;20387;-85
2021/08/25 16:50:40;;;;;;;5.10;3.70;;;24.20;56.30;;;;;;6181832;23;20854;-86
2021/08/25 16:53:09;;;;;;;5.80;3.90;;;24.20;56.30;;;;;;6209914;23;20367;-85
2021/08/25 16:55:37;;;;;;;7.33;3.67;;;24.20;56.40;;;;;;6181451;23;20415;-86
2021/08/25 16:58:16;;;;;;;7.37;3.90;;;24.20;56.40;;;;;;6208094;23;20375;-85
2021/08/25 17:00:49;;;;;;;7.67;4.47;;;24.20;56.40;;;;;;6209618;23;20409;-85
2021/08/25 17:03:23;;;;;;;4.73;3.27;;;24.20;56.40;;;;;;6166285;23;20409;-86
2021/08/25 17:06:11;;;;;;;7.13;3.97;;;24.20;56.40;;;;;;6237451;23;20362;-86
2021/08/25 17:08:40;;;;;;;6.20;3.90;;;24.20;56.40;;;;;;6239138;23;20385;-85
2021/08/25 17:11:18;;;;;;;5.47;3.63;;;24.20;56.50;;;;;;6236772;23;20421;-85
2021/08/25 17:13:48;;;;;;;4.87;3.30;;;24.20;56.50;;;;;;6237703;23;20358;-85
2021/08/25 17:16:15;;;;;;;5.33;3.77;;;24.20;56.50;;;;;;6236006;23;20422;-85
2021/08/25 17:18:47;;;;;;;5.43;3.30;;;24.20;56.50;;;;;;6261701;23;20374;-85
2021/08/25 17:21:16;;;;;;;6.97;4.00;;;24.20;56.50;;;;;;6212329;23;20470;-85
2021/08/25 17:23:47;;;;;;;7.00;3.97;;;24.20;56.50;;;;;;6237210;23;20367;-85
2021/08/25 17:26:24;;;;;;;5.93;3.90;;;24.20;56.50;;;;;;6236938;23;20370;-85
2021/08/25 17:28:50;;;;;;;5.87;3.90;;;24.20;56.60;;;;;;6237079;23;20358;-85
2021/08/25 17:31:20;;;;;;;6.30;4.00;;;24.20;56.60;;;;;;6235505;23;20746;-85
2021/08/25 17:33:50;;;;;;;5.33;3.70;;;24.20;56.60;;;;;;6260836;23;20378;-84
2021/08/25 17:36:21;;;;;;;5.93;3.90;;;24.20;56.60;;;;;;6235789;23;20422;-84
2021/08/25 17:38:50;;;;;;;6.50;4.10;;;24.20;56.60;;;;;;6235994;23;20374;-84
2021/08/25 17:41:24;;;;;;;5.60;4.13;;;24.20;56.60;;;;;;6236294;23;20405;-85
2021/08/25 17:43:58;;;;;;;6.97;4.30;;;24.10;56.50;;;;;;6188364;23;20445;-85
2021/08/25 17:46:38;;;;;;;4.37;3.43;;;24.10;56.60;;;;;;6237618;23;20408;-84
2021/08/25 17:49:27;;;;;;;7.80;4.10;;;24.10;56.60;;;;;;6237171;23;20362;-85
2021/08/25 17:52:25;;;;;;;5.50;3.70;;;24.10;56.60;;;;;;6263106;23;20397;-84
2021/08/25 17:55:18;;;;;;;5.47;3.93;;;24.10;56.60;;;;;;6202878;23;20370;-85
2021/08/25 17:57:48;;;;;;;7.20;5.30;;;24.10;56.70;;;;;;6213087;23;20413;-85
2021/08/25 18:00:15;;;;;;;5.60;3.53;;;24.10;56.70;;;;;;6236871;23;20397;-85
2021/08/25 18:02:44;;;;;;;5.73;3.63;;;24.10;56.70;;;;;;6238743;23;20353;-85
2021/08/25 18:05:38;;;;;;;;;;;;;;;;;;;;;
2021/08/25 18:08:04;;;;;;;7.13;4.17;;;24.10;56.70;;;;;;6237078;23;20378;-84
2021/08/25 18:10:31;;;;;;;8.30;3.80;;;24.10;56.70;;;;;;6235158;23;20382;-85
2021/08/25 18:12:59;;;;;;;5.70;3.63;;;24.10;56.70;;;;;;6209220;23;20446;-86
2021/08/25 18:15:32;;;;;;;4.63;3.60;;;24.10;56.70;;;;;;6235193;23;20560;-85
2021/08/25 18:18:11;;;;;;;;;;;;;;;;;;;;;
2021/08/25 18:20:38;;;;;;;4.67;3.10;;;24.10;56.70;;;;;;6237657;23;20357;-85
2021/08/25 18:23:06;;;;;;;6.10;4.17;;;24.10;56.80;;;;;;6261727;23;20385;-85
2021/08/25 18:32:50;;;;;;;4.10;2.97;;;24.10;56.70;;;;;;6237868;23;20843;-86
2021/08/25 18:35:17;;;;;;;7.13;3.87;;;24.00;56.70;;;;;;6213368;23;20898;-85
2021/08/25 18:41:15;;;;;;;6.90;4.00;;;24.00;56.80;;;;;;6238251;23;20370;-85
2021/08/25 18:43:58;;;;;;;5.67;4.30;;;24.00;56.90;;;;;;6238354;23;20386;-85
2021/08/25 18:46:27;;;;;;;5.20;3.43;;;24.00;56.90;;;;;;6235787;23;20374;-84
2021/08/25 18:49:03;;;;;;;4.77;3.40;;;24.00;56.90;;;;;;6260992;23;20390;-85
2021/08/25 18:51:31;;;;;;;8.50;3.73;;;24.00;56.80;;;;;;6236828;23;20362;-84
2021/08/25 19:00:30;;;;;;;6.33;3.40;;;24.00;56.80;;;;;;6236180;23;20405;-84
2021/08/25 19:09:47;;;;;;;4.97;3.63;;;23.90;56.80;;;;;;6209773;23;20390;-85
2021/08/25 19:12:18;;;;;;;5.43;2.80;;;23.90;56.90;;;;;;6206457;23;20452;-85
2021/08/25 19:14:51;;;;;;;6.00;3.00;;;23.90;56.90;;;;;;6178320;23;20394;-85
2021/08/25 19:17:32;;;;;;;5.70;3.40;;;23.90;56.80;;;;;;6179918;23;20427;-85
2021/08/25 19:20:12;;;;;;;4.67;3.47;;;23.90;56.80;;;;;;6179468;23;20375;-85
2021/08/25 19:22:45;;;;;;;4.27;3.57;;;23.90;56.80;;;;;;6181179;23;20402;-85
2021/08/25 19:25:23;;;;;;;5.83;4.40;;;23.90;56.80;;;;;;6181650;23;20406;-85
2021/08/25 19:28:08;;;;;;;;;;;;;;;;;;;;;
2021/08/25 19:30:39;;;;;;;4.80;3.23;;;23.90;56.80;;;;;;6207181;23;20363;-85
2021/08/25 19:33:17;;;;;;;4.77;3.60;;;23.90;56.80;;;;;;6181821;23;20403;-84
2021/08/25 19:35:43;;;;;;;5.30;3.50;;;23.90;56.80;;;;;;6157892;23;20426;-85
2021/08/25 19:38:24;;;;;;;5.07;3.43;;;23.90;56.80;;;;;;6133846;23;20379;-86
2021/08/25 19:41:02;;;;;;;3.27;2.70;;;23.90;56.70;;;;;;6206201;23;20351;-86
2021/08/25 19:43:45;;;;;;;4.70;3.10;;;23.90;56.80;;;;;;6158515;23;20383;-86
2021/08/25 19:46:23;;;;;;;4.13;3.03;;;23.90;56.80;;;;;;6208066;23;20339;-86
2021/08/25 19:48:54;;;;;;;6.03;3.53;;;23.90;56.80;;;;;;6180471;23;20389;-87
2021/08/25 19:51:21;;;;;;;5.50;2.93;;;23.90;56.80;;;;;;6183222;23;20374;-87
2021/08/25 19:54:02;;;;;;;4.17;2.80;;;23.90;56.80;;;;;;6179744;23;20385;-86
2021/08/25 19:56:47;;;;;;;;;;;;;;;;;;;;;
2021/08/25 19:59:17;;;;;;;5.67;3.07;;;23.90;56.80;;;;;;6205513;23;20348;-87
2021/08/25 20:01:50;;;;;;;5.10;3.33;;;23.90;56.80;;;;;;6178986;23;20359;-86
2021/08/25 20:04:24;;;;;;;3.60;2.80;;;23.90;56.80;;;;;;6180301;23;20375;-86
2021/08/25 20:06:54;;;;;;;4.67;2.93;;;23.90;56.80;;;;;;6179566;23;20467;-86
2021/08/25 20:09:20;;;;;;;4.17;2.80;;;23.90;56.80;;;;;;6212668;23;20395;-87
2021/08/25 20:11:48;;;;;;;3.93;2.90;;;23.90;56.70;;;;;;6179938;23;20367;-87
2021/08/25 20:14:16;;;;;;;4.30;2.87;;;23.90;56.70;;;;;;6178758;23;20445;-87
2021/08/25 20:16:42;;;;;;;3.50;2.50;;;23.90;56.80;;;;;;6204591;23;20410;-87
2021/08/25 20:19:23;;;;;;;;;;;;;;;;;;;;;
2021/08/25 20:21:52;;;;;;;4.00;3.20;;;23.90;56.70;;;;;;6204727;23;20355;-87
2021/08/25 20:24:25;;;;;;;7.73;2.80;;;23.90;56.80;;;;;;6205011;23;20969;-87
2021/08/25 20:26:53;;;;;;;4.43;2.83;;;23.90;56.80;;;;;;6154429;23;20458;-86
2021/08/25 20:29:21;;;;;;;5.20;3.63;;;23.90;56.80;;;;;;6178593;23;20398;-86
2021/08/25 20:35:44;;;;;;;5.07;3.33;;;23.90;56.80;;;;;;6145496;23;20380;-86
2021/08/25 20:38:20;;;;;;;3.90;2.70;;;23.90;56.80;;;;;;6143514;23;20396;-85
2021/08/25 20:41:00;;;;;;;4.97;3.27;;;23.80;56.80;;;;;;6145117;23;20746;-85
2021/08/25 20:43:35;;;;;;;4.23;2.50;;;23.80;56.80;;;;;;6120442;23;20475;-85
2021/08/25 20:49:44;;;;;;;3.60;2.70;;;23.80;56.70;;;;;;6115966;23;20398;-85
2021/08/25 20:52:23;;;;;;;;;;;;;;;;;;;;;
2021/08/25 20:54:54;;;;;;;3.80;2.80;;;23.80;56.90;;;;;;6107241;23;20396;-85
2021/08/25 20:57:26;;;;;;;3.70;3.00;;;23.80;56.80;;;;;;6077424;23;20428;-84
2021/08/25 21:00:16;;;;;;;3.90;2.50;;;23.80;56.80;;;;;;6059980;23;20386;-84
2021/08/25 21:02:44;;;;;;;4.03;3.30;;;23.80;56.80;;;;;;6082406;23;20490;-84
2021/08/25 21:05:14;;;;;;;4.10;2.57;;;23.80;56.80;;;;;;6107712;23;20745;-85
2021/08/25 21:07:50;;;;;;;4.30;2.70;;;23.80;56.80;;;;;;6141327;23;20392;-84
2021/08/25 21:10:33;;;;;;;3.60;2.40;;;23.80;56.80;;;;;;6170268;23;20495;-84
2021/08/25 21:13:08;;;;;;;4.53;3.20;;;23.80;56.80;;;;;;6173108;23;20379;-84
2021/08/25 21:15:39;;;;;;;4.30;3.13;;;23.80;56.80;;;;;;6197414;23;20834;-84
2021/08/25 21:18:05;;;;;;;3.40;2.80;;;23.80;56.80;;;;;;6171222;23;20382;-84
2021/08/25 21:20:31;;;;;;;4.50;3.03;;;23.80;56.80;;;;;;6200599;23;20378;-84
2021/08/25 21:22:57;;;;;;;2.93;2.43;;;23.80;56.80;;;;;;6228381;23;20390;-85
2021/08/25 21:25:23;;;;;;;4.10;3.70;;;23.80;56.80;;;;;;6229127;23;20464;-85
2021/08/25 21:27:58;;;;;;;3.53;2.50;;;23.80;56.80;;;;;;6230853;23;20485;-85
2021/08/25 21:30:32;;;;;;;3.17;2.40;;;23.80;56.80;;;;;;6237249;23;20354;-86
2021/08/25 21:33:03;;;;;;;4.30;2.73;;;23.80;57.40;;;;;;6212956;23;20374;-86
2021/08/25 21:35:37;;;;;;;3.20;2.47;;;23.80;56.80;;;;;;6212323;23;20418;-86
2021/08/25 21:38:07;;;;;;;4.83;2.90;;;23.80;56.80;;;;;;6211328;23;20381;-86
2021/08/25 21:40:33;;;;;;;4.20;2.50;;;23.80;56.80;;;;;;6185296;23;20405;-85
2021/08/25 21:43:02;;;;;;;3.57;2.57;;;23.80;56.80;;;;;;6185166;23;20425;-85
2021/08/25 21:45:33;;;;;;;3.40;2.70;;;23.80;56.80;;;;;;6235269;23;20439;-86
2021/08/25 21:47:59;;;;;;;3.63;2.93;;;23.80;56.80;;;;;;6236375;23;20355;-86
2021/08/25 21:50:28;;;;;;;3.80;3.17;;;23.80;56.80;;;;;;6209355;23;20378;-86
2021/08/25 21:52:56;;;;;;;4.23;2.80;;;23.80;56.80;;;;;;6209125;23;20386;-86
2021/08/25 22:02:57;;;;;;;3.20;2.07;;;23.70;56.80;;;;;;6027771;23;20394;-86
2021/08/25 22:05:27;;;;;;;3.33;3.00;;;23.70;56.80;;;;;;5980659;23;20403;-86
2021/08/25 22:07:53;;;;;;;3.07;2.30;;;23.70;56.90;;;;;;6028253;23;20384;-86
2021/08/25 22:10:21;;;;;;;3.50;3.20;;;23.70;56.90;;;;;;6031741;23;20436;-86
2021/08/25 22:12:50;;;;;;;3.30;2.40;;;23.70;56.80;;;;;;6032905;23;20403;-86
2021/08/25 22:15:19;;;;;;;2.87;2.20;;;23.80;56.90;;;;;;6056731;23;20404;-86
2021/08/25 22:17:54;;;;;;;4.27;2.93;;;23.70;56.70;;;;;;6033212;23;20442;-86
2021/08/25 22:20:25;;;;;;;3.53;2.70;;;23.80;56.80;;;;;;6032835;23;20455;-86
2021/08/25 22:22:51;;;;;;;3.73;2.70;;;23.80;56.80;;;;;;6032018;23;20394;-85
2021/08/25 22:25:19;;;;;;;3.27;2.37;;;23.80;56.80;;;;;;6032198;23;20392;-86
2021/08/25 22:27:45;;;;;;;3.53;2.33;;;23.80;56.70;;;;;;6032480;23;20392;-86
2021/08/25 22:30:18;;;;;;;2.93;2.07;;;23.80;56.70;;;;;;6033174;23;20489;-86
2021/08/25 22:32:48;;;;;;;4.10;2.80;;;23.80;56.60;;;;;;6056813;23;20402;-85
2021/08/25 22:35:14;;;;;;;3.67;2.73;;;23.80;56.70;;;;;;6123995;23;20426;-86
2021/08/25 22:37:40;;;;;;;4.63;2.80;;;23.80;56.60;;;;;;6235411;23;20478;-86
2021/08/25 22:40:06;;;;;;;4.60;2.93;;;23.80;56.60;;;;;;6234352;23;20135;-86
2021/08/25 22:42:40;;;;;;;3.23;2.00;;;23.80;56.60;;;;;;6234537;23;20374;-86
2021/08/25 22:45:06;;;;;;;3.40;2.27;;;23.90;56.70;;;;;;6234830;23;20405;-85
2021/08/25 22:47:34;;;;;;;4.37;2.33;;;23.90;56.60;;;;;;6234341;23;20414;-85
2021/08/25 22:50:02;;;;;;;2.83;2.47;;;23.80;56.60;;;;;;6235213;23;20366;-85
2021/08/25 22:52:28;;;;;;;3.23;2.27;;;23.80;56.60;;;;;;6234895;23;20701;-85
2021/08/25 22:54:54;;;;;;;3.10;2.80;;;23.90;56.60;;;;;;6235329;23;20548;-85
2021/08/25 22:57:25;;;;;;;3.10;2.37;;;23.90;56.60;;;;;;6234411;23;20181;-85
2021/08/25 22:59:52;;;;;;;2.27;1.87;;;23.90;56.60;;;;;;6234011;23;20474;-84